Bartlett, Illinois
Current Conditions -  °F | °C
As of 12:52 AM on Wednesday 22 Oct 2014 (Local Time) from KDPA Reporting Station
Overcast Overcast  
Wind Chill: 42°   Ceiling: 2900
Heat Index: 42°   Visibility: 10mi
Dew Point: 37°   Wind: 3mph
Humidity: 82%   Direction: 10°N
Pressure: 30.26"   Gusts: NA
Location:  41.99°N, 88.18°W
Report Text: KDPA 220552Z 01003KT 10SM OVC029 06/03 A3026 RMK AO2 SLP249 T00560028 10089 20033 401390033 55002
Loading
Personal Weather Stations






























Interactive Weather Map New forecast layout! Learn more

10-Day Weather Forecast

Advertisements
Track Severe Weather on mobile